Time;durP1;ratioP1;P1;durP2;ratioP2;P2;SDS_P1;SDS_P2;PMS_P1;PMS_P2;Temp;Humidity;BMP_temperature;BMP_pressure;BME280_temperature;BME280_humidity;BME280_pressure;Samples;Min_cycle;Max_cycle;Signal;HPM_P1;HPM_P2
2022/07/04 00:00:18;;;;;;;2.25;0.63;;;;;;;16.30;100.00;101973.59;5014012;28;20046;-29
2022/07/04 00:02:48;;;;;;;4.28;0.70;;;;;;;16.35;100.00;101981.13;5013980;28;20177;-31
2022/07/04 00:05:18;;;;;;;3.10;0.60;;;;;;;16.37;100.00;101970.38;5013672;28;20050;-32
2022/07/04 00:07:48;;;;;;;4.63;0.70;;;;;;;16.40;100.00;101972.53;5013913;28;20495;-29
2022/07/04 00:10:22;;;;;;;3.50;0.50;;;;;;;16.43;100.00;101963.47;5014697;28;20129;-31
2022/07/04 00:12:50;;;;;;;1.48;0.40;;;;;;;16.46;100.00;101968.47;5013325;28;20045;-34
2022/07/04 00:15:18;;;;;;;1.85;0.60;;;;;;;16.49;100.00;101965.88;5014006;28;20051;-33
2022/07/04 00:17:46;;;;;;;3.65;0.68;;;;;;;16.52;100.00;101968.06;5013589;28;20068;-31
2022/07/04 00:20:14;;;;;;;2.42;0.50;;;;;;;16.52;100.00;101954.00;5012078;28;20060;-33
2022/07/04 00:22:43;;;;;;;3.55;0.60;;;;;;;16.58;100.00;101965.16;5013854;28;20128;-33
2022/07/04 00:25:11;;;;;;;3.75;0.60;;;;;;;16.60;100.00;101960.88;5014106;28;20136;-31
2022/07/04 00:27:39;;;;;;;4.13;0.70;;;;;;;16.63;100.00;101965.91;5012809;28;20046;-37
2022/07/04 00:30:08;;;;;;;2.40;0.82;;;;;;;16.64;100.00;101961.94;5013650;28;20129;-29
2022/07/04 00:32:36;;;;;;;2.60;0.68;;;;;;;16.67;100.00;101966.97;5012609;28;20144;-33
2022/07/04 00:35:04;;;;;;;3.53;0.70;;;;;;;16.69;100.00;101958.19;5012827;28;20045;-32
2022/07/04 00:37:33;;;;;;;3.15;0.60;;;;;;;16.71;100.00;101955.91;5013682;28;20042;-34
2022/07/04 00:40:02;;;;;;;3.35;0.70;;;;;;;16.73;100.00;101959.25;5013612;28;20137;-32
2022/07/04 00:42:30;;;;;;;2.83;0.70;;;;;;;16.73;100.00;101951.63;5013495;28;20131;-30
2022/07/04 00:44:58;;;;;;;3.92;0.60;;;;;;;16.75;100.00;101948.50;5013304;28;20144;-35
2022/07/04 00:47:25;;;;;;;3.05;0.73;;;;;;;16.74;100.00;101950.47;5012525;28;20081;-29
2022/07/04 00:49:53;;;;;;;3.08;0.60;;;;;;;16.73;100.00;101948.81;5009825;28;20056;-28
2022/07/04 00:52:21;;;;;;;1.65;0.40;;;;;;;16.72;100.00;101951.94;5013688;28;20050;-30
2022/07/04 00:54:50;;;;;;;3.63;0.75;;;;;;;16.70;100.00;101940.97;5012405;28;20153;-28
2022/07/04 00:57:19;;;;;;;2.38;0.55;;;;;;;16.69;100.00;101935.63;5013474;28;20469;-27
2022/07/04 00:59:47;;;;;;;2.60;0.65;;;;;;;16.66;100.00;101948.38;5012763;28;20495;-35
2022/07/04 01:02:16;;;;;;;1.70;0.40;;;;;;;16.63;100.00;101937.72;5012614;28;20053;-29
2022/07/04 01:04:44;;;;;;;2.53;0.70;;;;;;;16.62;100.00;101932.38;5011988;28;20034;-28
2022/07/04 01:07:13;;;;;;;3.13;0.60;;;;;;;16.60;100.00;101932.69;5013185;28;20046;-33
2022/07/04 01:09:40;;;;;;;2.17;0.52;;;;;;;16.58;100.00;101932.19;5012087;28;20068;-30
2022/07/04 01:12:09;;;;;;;2.00;0.75;;;;;;;16.56;100.00;101931.66;5013230;28;20455;-27
2022/07/04 01:14:39;;;;;;;2.40;0.60;;;;;;;16.55;100.00;101930.00;5012516;28;20084;-28
2022/07/04 01:17:07;;;;;;;3.22;0.70;;;;;;;16.53;100.00;101923.84;5012516;28;20068;-29
2022/07/04 01:19:35;;;;;;;2.20;0.50;;;;;;;16.53;100.00;101926.66;5012963;28;20128;-34
2022/07/04 01:22:07;;;;;;;2.60;0.70;;;;;;;16.53;100.00;101918.19;5013101;28;20046;-28
2022/07/04 01:24:35;;;;;;;3.33;0.65;;;;;;;16.49;100.00;101917.16;5012034;28;20511;-33
2022/07/04 01:27:03;;;;;;;1.70;0.60;;;;;;;16.49;100.00;101912.34;5012447;28;20045;-29
2022/07/04 01:29:32;;;;;;;1.80;0.47;;;;;;;16.48;100.00;101909.84;5011337;28;20443;-29
2022/07/04 01:32:04;;;;;;;2.42;0.57;;;;;;;16.48;100.00;101918.28;5010878;28;20073;-29
2022/07/04 01:34:32;;;;;;;1.98;0.63;;;;;;;16.44;100.00;101911.59;5011575;28;20056;-28
2022/07/04 01:37:01;;;;;;;3.58;0.80;;;;;;;16.44;100.00;101922.88;5010504;28;20052;-29
2022/07/04 01:39:30;;;;;;;3.88;0.70;;;;;;;16.44;100.00;101917.25;5011102;28;20119;-37
2022/07/04 01:41:58;;;;;;;1.60;0.55;;;;;;;16.40;100.00;101922.66;5011309;28;20046;-28
2022/07/04 01:44:26;;;;;;;3.72;0.80;;;;;;;16.40;100.00;101924.66;5010771;28;20056;-32
2022/07/04 01:46:54;;;;;;;2.97;0.70;;;;;;;16.42;100.00;101926.00;5012330;28;20046;-33
2022/07/04 01:49:22;;;;;;;6.82;0.93;;;;;;;16.43;100.00;101922.03;5012516;28;20427;-28
2022/07/04 01:51:52;;;;;;;8.73;1.52;;;;;;;16.47;100.00;101930.72;5010789;28;20081;-28
2022/07/04 01:54:20;;;;;;;3.20;0.85;;;;;;;16.50;100.00;101928.09;5012562;28;20085;-28
2022/07/04 01:56:50;;;;;;;7.07;0.98;;;;;;;16.55;100.00;101930.00;5010764;28;20427;-28
2022/07/04 01:59:18;;;;;;;4.35;0.75;;;;;;;16.60;100.00;101923.38;5011847;28;20050;-33
2022/07/04 02:01:45;;;;;;;3.13;1.00;;;;;;;16.63;100.00;101932.09;5011996;28;20078;-28
2022/07/04 02:04:13;;;;;;;3.58;0.90;;;;;;;16.65;100.00;101929.78;5012253;28;20104;-32
2022/07/04 02:06:41;;;;;;;5.10;1.00;;;;;;;16.67;100.00;101930.31;5010829;28;20053;-28
2022/07/04 02:09:19;;;;;;;3.78;0.93;;;;;;;16.69;100.00;101936.47;5012434;28;20353;-29
2022/07/04 02:14:34;;;;;;;6.53;1.02;;;;;;;16.73;100.00;101945.16;5012277;28;20056;-30
2022/07/04 02:17:02;;;;;;;6.60;1.10;;;;;;;16.75;100.00;101938.06;5009868;28;20073;-32
2022/07/04 02:19:30;;;;;;;4.28;1.00;;;;;;;16.79;100.00;101941.88;5011561;28;20409;-28
2022/07/04 02:21:58;;;;;;;4.85;1.00;;;;;;;16.82;100.00;101941.25;5011567;28;20511;-27
2022/07/04 02:24:26;;;;;;;6.00;1.08;;;;;;;16.87;100.00;101943.13;5012184;28;20056;-32
2022/07/04 02:26:54;;;;;;;7.45;1.55;;;;;;;16.88;100.00;101936.34;5010436;28;20052;-29
2022/07/04 02:29:22;;;;;;;4.65;1.13;;;;;;;16.91;100.00;101940.53;5011733;28;20156;-29
2022/07/04 02:31:51;;;;;;;5.32;1.15;;;;;;;16.94;100.00;101931.44;5011800;28;20056;-30
2022/07/04 02:34:19;;;;;;;6.75;1.33;;;;;;;16.93;100.00;101922.16;5011280;28;20081;-31
2022/07/04 02:36:47;;;;;;;6.30;1.00;;;;;;;16.94;100.00;101922.97;5011533;28;20419;-27
2022/07/04 02:39:15;;;;;;;4.25;0.90;;;;;;;16.91;100.00;101924.44;5011729;28;20064;-34
2022/07/04 02:41:43;;;;;;;5.80;1.08;;;;;;;16.88;100.00;101914.63;5010941;28;20077;-29
2022/07/04 02:44:10;;;;;;;5.18;1.27;;;;;;;16.85;100.00;101918.06;5011545;28;20058;-28
2022/07/04 02:46:38;;;;;;;4.00;1.00;;;;;;;16.82;100.00;101915.88;5011734;28;20133;-28
2022/07/04 02:49:08;;;;;;;4.25;1.10;;;;;;;16.77;100.00;101910.38;5011152;28;20100;-28
2022/07/04 02:51:36;;;;;;;5.43;0.95;;;;;;;16.76;100.00;101920.00;5011600;28;20068;-28
2022/07/04 02:54:04;;;;;;;6.72;1.10;;;;;;;16.73;100.00;101912.16;5010658;28;20046;-28
2022/07/04 02:56:32;;;;;;;5.22;1.10;;;;;;;16.70;100.00;101917.59;5011508;28;20077;-29
2022/07/04 02:58:59;;;;;;;5.13;1.15;;;;;;;16.66;100.00;101913.72;5011264;28;20411;-30
2022/07/04 03:01:27;;;;;;;5.45;1.10;;;;;;;16.63;100.00;101908.69;5010929;28;20053;-33
2022/07/04 03:03:55;;;;;;;3.90;0.93;;;;;;;16.60;100.00;101904.50;5011066;28;20042;-27
2022/07/04 03:06:24;;;;;;;4.28;1.13;;;;;;;16.56;100.00;101911.09;5011200;28;20056;-28
2022/07/04 03:08:52;;;;;;;6.05;1.23;;;;;;;16.52;100.00;101914.53;5010028;28;20042;-28
2022/07/04 03:11:20;;;;;;;5.32;1.10;;;;;;;16.48;100.00;101916.31;5011778;28;20042;-28
2022/07/04 03:13:48;;;;;;;3.55;1.05;;;;;;;16.44;100.00;101915.25;5011172;28;20053;-28
2022/07/04 03:16:16;;;;;;;5.03;1.23;;;;;;;16.42;100.00;101908.28;5010652;28;20065;-31
2022/07/04 03:18:44;;;;;;;5.10;1.30;;;;;;;16.39;100.00;101912.53;5011141;28;20050;-33
2022/07/04 03:21:12;;;;;;;5.03;1.30;;;;;;;16.37;100.00;101905.56;5011544;28;20049;-29
2022/07/04 03:23:41;;;;;;;2.10;0.90;;;;;;;16.34;100.00;101904.22;5010228;28;20076;-30
2022/07/04 03:26:09;;;;;;;4.22;1.10;;;;;;;16.31;100.00;101910.47;5010994;28;20073;-27
2022/07/04 03:28:37;;;;;;;3.88;1.20;;;;;;;16.30;100.00;101905.97;5013597;28;20108;-37
2022/07/04 03:31:04;;;;;;;4.50;1.00;;;;;;;16.29;100.00;101914.75;5014269;28;20037;-28
2022/07/04 03:33:32;;;;;;;3.50;1.08;;;;;;;16.28;100.00;101910.25;5013609;28;20627;-34
2022/07/04 03:36:00;;;;;;;4.85;1.15;;;;;;;16.26;100.00;101901.28;5012936;28;20112;-29
2022/07/04 03:38:28;;;;;;;3.97;1.20;;;;;;;16.26;100.00;101904.09;5013265;28;20054;-29
2022/07/04 03:40:57;;;;;;;4.10;1.15;;;;;;;16.25;100.00;101897.63;5014188;28;20050;-33
2022/07/04 03:43:25;;;;;;;4.20;1.20;;;;;;;16.23;100.00;101902.72;5014135;28;20049;-33
2022/07/04 03:45:52;;;;;;;3.58;1.45;;;;;;;16.22;100.00;101903.88;5014676;28;20033;-33
2022/07/04 03:48:21;;;;;;;6.22;1.35;;;;;;;16.23;100.00;101907.53;5014595;28;20072;-28
2022/07/04 03:50:49;;;;;;;2.65;0.93;;;;;;;16.20;100.00;101901.38;5013421;28;20066;-34
2022/07/04 03:53:16;;;;;;;2.38;0.90;;;;;;;16.19;100.00;101910.97;5014871;28;20052;-36
2022/07/04 03:55:44;;;;;;;2.78;0.90;;;;;;;16.19;100.00;101904.50;5013602;28;20418;-28
2022/07/04 03:58:13;;;;;;;5.47;1.15;;;;;;;16.18;100.00;101909.31;5014066;28;20049;-31
2022/07/04 04:00:42;;;;;;;3.85;1.02;;;;;;;16.18;100.00;101908.50;5014225;28;20406;-30
2022/07/04 04:05:26;;;;;;;2.50;0.90;;;;;;;16.17;100.00;101906.81;5014673;28;20490;-29
2022/07/04 04:05:57;;;;;;;2.55;0.93;;;;;;;16.14;100.00;101913.91;5013273;28;20136;-33
2022/07/04 04:08:25;;;;;;;3.72;1.00;;;;;;;16.15;100.00;101911.94;5014533;28;20053;-33
2022/07/04 04:10:53;;;;;;;3.85;1.05;;;;;;;16.16;100.00;101916.41;5014110;28;20046;-33
2022/07/04 04:13:22;;;;;;;2.58;1.00;;;;;;;16.16;100.00;101919.22;5013756;28;20064;-30
2022/07/04 04:15:50;;;;;;;2.90;1.13;;;;;;;16.14;100.00;101911.09;5013597;28;20046;-29
2022/07/04 04:18:17;;;;;;;2.53;1.05;;;;;;;16.13;100.00;101922.66;5013440;28;20045;-32
2022/07/04 04:20:45;;;;;;;2.97;1.10;;;;;;;16.13;100.00;101917.88;5013870;28;20495;-36
2022/07/04 04:23:13;;;;;;;2.95;1.25;;;;;;;16.15;100.00;101935.28;5003620;28;20042;-34
2022/07/04 04:25:41;;;;;;;2.47;1.10;;;;;;;16.17;100.00;101934.97;5012784;28;20064;-28
2022/07/04 04:28:09;;;;;;;3.25;1.25;;;;;;;16.18;100.00;101937.50;5013524;28;20045;-30
2022/07/04 04:30:38;;;;;;;5.90;1.50;;;;;;;16.21;100.00;101941.63;5013869;28;20136;-27
2022/07/04 04:33:06;;;;;;;4.20;1.50;;;;;;;16.25;100.00;101939.03;5009805;28;20052;-28
2022/07/04 04:35:34;;;;;;;2.75;1.30;;;;;;;16.27;100.00;101940.41;5013793;28;20046;-31
2022/07/04 04:38:02;;;;;;;4.25;1.67;;;;;;;16.29;100.00;101937.28;5013358;28;20044;-29
2022/07/04 04:40:30;;;;;;;3.20;1.27;;;;;;;16.31;100.00;101935.00;5012913;28;20049;-27
2022/07/04 04:42:58;;;;;;;4.78;1.40;;;;;;;16.34;100.00;101928.72;5013537;28;20088;-30
2022/07/04 04:45:25;;;;;;;2.25;1.00;;;;;;;16.36;100.00;101943.34;5013744;28;20049;-27
2022/07/04 04:47:55;;;;;;;2.50;1.30;;;;;;;16.36;100.00;101934.91;5012555;28;20046;-27
2022/07/04 04:50:22;;;;;;;2.28;1.30;;;;;;;16.35;100.00;101936.88;5013619;28;20136;-28
2022/07/04 04:52:51;;;;;;;6.35;1.60;;;;;;;16.37;100.00;101948.66;5012682;28;20565;-29
2022/07/04 04:55:19;;;;;;;3.38;1.50;;;;;;;16.40;100.00;101941.53;5012801;28;20574;-32
2022/07/04 04:57:46;;;;;;;2.78;1.20;;;;;;;16.43;100.00;101949.38;5013038;28;20179;-37
2022/07/04 05:00:15;;;;;;;5.97;1.77;;;;;;;16.46;100.00;101938.31;5013089;28;20052;-35
2022/07/04 05:02:42;;;;;;;3.30;1.20;;;;;;;16.53;100.00;101943.56;5012389;28;20057;-29
2022/07/04 05:05:12;;;;;;;4.53;1.50;;;;;;;16.58;100.00;101937.81;5012655;28;20073;-28
2022/07/04 05:07:40;;;;;;;4.03;1.30;;;;;;;16.64;100.00;101938.56;5012054;28;20052;-33
2022/07/04 05:10:09;;;;;;;5.40;1.45;;;;;;;16.70;100.00;101942.94;5013319;28;20077;-29
2022/07/04 05:12:37;;;;;;;2.53;1.20;;;;;;;16.76;100.00;101939.72;5011642;28;20503;-32
2022/07/04 05:15:07;;;;;;;4.72;1.30;;;;;;;16.80;100.00;101943.56;5010168;28;20049;-30
2022/07/04 05:17:35;;;;;;;2.88;1.10;;;;;;;16.84;100.00;101947.41;5011947;28;20048;-33
2022/07/04 05:20:04;;;;;;;4.57;1.33;;;;;;;16.88;100.00;101951.28;5011749;28;20050;-32
2022/07/04 05:22:33;;;;;;;3.55;1.33;;;;;;;16.94;100.00;101959.63;5009641;28;20080;-33
2022/07/04 05:25:01;;;;;;;3.47;1.70;;;;;;;16.97;100.00;101954.22;5011524;28;20128;-29
2022/07/04 05:27:30;;;;;;;3.80;1.33;;;;;;;17.00;100.00;101956.38;5011265;28;20050;-28
2022/07/04 05:29:59;;;;;;;2.95;1.10;;;;;;;17.04;100.00;101957.41;5007487;28;20048;-28
2022/07/04 05:32:26;;;;;;;4.05;1.30;;;;;;;17.04;100.00;101945.28;5011583;28;20120;-30
2022/07/04 05:34:54;;;;;;;5.72;1.50;;;;;;;17.02;100.00;101950.41;5011175;28;20132;-34
2022/07/04 05:37:22;;;;;;;3.17;1.10;;;;;;;17.01;100.00;101949.56;5010873;28;20181;-32
2022/07/04 05:39:52;;;;;;;3.05;1.10;;;;;;;17.02;100.00;101947.59;5011482;28;20457;-40
2022/07/04 05:42:19;;;;;;;4.70;1.40;;;;;;;17.03;100.00;101949.25;5011605;28;20060;-30
2022/07/04 05:44:47;;;;;;;2.60;1.10;;;;;;;17.03;100.00;101947.28;5010691;28;20581;-31
2022/07/04 05:47:15;;;;;;;2.47;1.27;;;;;;;17.06;100.00;101948.63;5011448;28;20056;-31
2022/07/04 05:49:43;;;;;;;4.20;1.52;;;;;;;17.10;100.00;101947.69;5009233;28;20049;-29
2022/07/04 05:52:11;;;;;;;3.10;1.20;;;;;;;17.12;100.00;101938.91;5011339;28;20054;-32
2022/07/04 05:54:39;;;;;;;3.47;1.40;;;;;;;17.18;100.00;101948.94;5011027;28;20050;-29
2022/07/04 05:57:08;;;;;;;3.10;1.40;;;;;;;17.20;100.00;101946.63;5010768;28;20049;-31
2022/07/04 05:59:37;;;;;;;3.92;1.30;;;;;;;17.23;100.00;101945.97;5010652;28;20048;-33
2022/07/04 06:02:05;;;;;;;4.10;1.50;;;;;;;17.28;100.00;101943.03;5010957;28;20168;-36
2022/07/04 06:04:33;;;;;;;5.43;1.60;;;;;;;17.35;100.00;101959.56;5009982;28;20426;-31
2022/07/04 06:07:01;;;;;;;4.45;1.80;;;;;;;17.42;100.00;101957.94;5011128;28;20068;-29
2022/07/04 06:09:29;;;;;;;3.92;1.48;;;;;;;17.50;100.00;101968.47;5010708;28;20053;-29
2022/07/04 06:11:57;;;;;;;4.60;1.77;;;;;;;17.58;100.00;101964.88;5010403;28;20070;-29
2022/07/04 06:14:26;;;;;;;5.47;1.65;;;;;;;17.66;100.00;101970.94;5010055;28;20046;-34
2022/07/04 06:16:54;;;;;;;3.80;1.50;;;;;;;17.73;100.00;101966.53;5010913;28;20141;-29
2022/07/04 06:19:22;;;;;;;3.13;1.40;;;;;;;17.83;100.00;101971.06;5009932;28;20062;-38
2022/07/04 06:21:50;;;;;;;4.75;1.42;;;;;;;17.95;100.00;101974.16;5009664;28;20530;-35
2022/07/04 06:24:18;;;;;;;3.70;1.60;;;;;;;18.06;100.00;101978.38;5010335;28;20494;-29
2022/07/04 06:26:46;;;;;;;3.72;1.48;;;;;;;18.24;100.00;101991.44;5008338;28;20164;-31
2022/07/04 06:29:14;;;;;;;4.22;2.13;;;;;;;18.36;100.00;101990.03;5011119;28;20056;-30
2022/07/04 06:31:43;;;;;;;2.47;1.27;;;;;;;18.43;100.00;101998.88;5008702;28;20073;-29
2022/07/04 06:36:56;;;;;;;4.78;1.73;;;;;;;18.63;100.00;101994.66;5010469;28;20133;-31
2022/07/04 06:39:24;;;;;;;4.68;1.50;;;;;;;18.77;100.00;101990.59;5010443;28;20530;-32
2022/07/04 06:41:52;;;;;;;3.05;1.23;;;;;;;18.86;100.00;101999.09;5011511;28;20136;-33
2022/07/04 06:44:20;;;;;;;3.58;1.20;;;;;;;18.97;100.00;101989.16;5011711;28;20148;-30
2022/07/04 06:46:50;;;;;;;5.35;1.20;;;;;;;19.24;100.00;101990.84;5007538;28;20042;-36
2022/07/04 06:49:18;;;;;;;3.95;1.33;;;;;;;19.56;100.00;101987.59;5011684;28;20121;-37
2022/07/04 06:51:46;;;;;;;3.75;1.30;;;;;;;19.92;100.00;101995.75;5010935;28;20057;-31
2022/07/04 06:54:14;;;;;;;3.80;1.25;;;;;;;20.36;100.00;101996.50;5010833;28;20045;-33
2022/07/04 06:56:42;;;;;;;5.70;1.48;;;;;;;20.76;100.00;101996.22;5011389;28;20054;-30
2022/07/04 06:59:10;;;;;;;1.75;0.95;;;;;;;21.15;100.00;102003.50;5011575;28;20516;-31
2022/07/04 07:01:37;;;;;;;2.88;1.02;;;;;;;21.45;100.00;101993.78;5011623;28;20046;-34
2022/07/04 07:04:07;;;;;;;3.28;1.10;;;;;;;21.60;99.22;101993.16;5014758;28;20463;-33
2022/07/04 07:06:35;;;;;;;3.88;1.20;;;;;;;21.71;98.38;101995.59;5014888;28;20049;-30
2022/07/04 07:09:02;;;;;;;2.83;1.05;;;;;;;21.76;96.28;101995.41;5014648;28;20521;-31
2022/07/04 07:11:30;;;;;;;3.45;1.17;;;;;;;21.86;95.55;101995.78;5015265;28;20382;-31
2022/07/04 07:13:58;;;;;;;3.22;0.82;;;;;;;22.06;94.02;101999.81;5014998;28;20046;-37
2022/07/04 07:16:26;;;;;;;3.83;0.88;;;;;;;22.17;91.68;102003.91;5015035;28;20041;-30
2022/07/04 07:18:54;;;;;;;3.20;0.80;;;;;;;22.36;91.05;101999.69;5015203;28;20050;-31
2022/07/04 07:21:23;;;;;;;2.03;0.88;;;;;;;22.59;88.60;101998.03;5014063;28;20060;-38
2022/07/04 07:23:51;;;;;;;4.43;1.08;;;;;;;22.84;86.94;102002.59;5015235;28;20049;-30
2022/07/04 07:26:19;;;;;;;2.50;0.80;;;;;;;23.21;84.35;102005.44;5014884;28;20058;-32
2022/07/04 07:28:46;;;;;;;3.03;0.70;;;;;;;23.61;81.65;102003.50;5014160;28;20081;-30
2022/07/04 07:31:14;;;;;;;2.28;0.82;;;;;;;24.09;78.25;101997.97;5014973;28;20049;-32
2022/07/04 07:33:42;;;;;;;4.43;0.80;;;;;;;24.52;75.72;102002.88;5014569;28;20062;-41
2022/07/04 07:36:10;;;;;;;3.53;0.80;;;;;;;24.99;72.78;102008.59;5014296;28;20045;-34
2022/07/04 07:38:39;;;;;;;4.25;1.05;;;;;;;25.51;69.92;102001.69;5014817;28;20046;-34
2022/07/04 07:41:09;;;;;;;2.58;0.80;;;;;;;26.14;67.05;101999.41;4996108;28;20091;-33
2022/07/04 07:43:37;;;;;;;3.33;0.82;;;;;;;26.55;63.35;102005.53;5013866;28;20056;-31
2022/07/04 07:46:06;;;;;;;4.05;0.80;;;;;;;26.79;60.34;102002.28;5014787;28;20049;-37
2022/07/04 07:48:34;;;;;;;4.57;0.88;;;;;;;27.19;58.14;102003.78;5014416;28;20049;-35
2022/07/04 07:51:02;;;;;;;3.42;0.80;;;;;;;27.51;57.10;102007.16;5013813;28;20050;-32
2022/07/04 07:53:30;;;;;;;4.05;0.85;;;;;;;27.89;55.30;102012.63;5014226;28;20046;-32
2022/07/04 07:56:00;;;;;;;2.45;0.60;;;;;;;28.07;53.92;102004.22;5014603;28;20050;-36
2022/07/04 07:58:28;;;;;;;2.90;0.80;;;;;;;28.44;52.26;102001.38;5013320;28;20049;-33
2022/07/04 08:00:55;;;;;;;3.85;1.00;;;;;;;28.90;50.14;102006.78;5014775;28;20153;-35
2022/07/04 08:06:09;;;;;;;2.30;0.70;;;;;;;29.58;46.90;102011.00;5014603;28;20050;-31
2022/07/04 08:08:37;;;;;;;3.17;0.68;;;;;;;29.89;45.45;102012.41;5013984;28;20042;-38
2022/07/04 08:11:06;;;;;;;3.65;0.80;;;;;;;30.24;44.55;102003.91;5013403;28;20046;-32
2022/07/04 08:13:35;;;;;;;2.38;0.73;;;;;;;30.49;43.68;102013.44;5013405;28;20072;-31
2022/07/04 08:16:03;;;;;;;2.10;0.75;;;;;;;30.59;43.42;102016.78;5014404;28;20132;-43
2022/07/04 08:18:31;;;;;;;2.75;0.80;;;;;;;30.52;42.13;102017.56;5011934;28;20042;-33
2022/07/04 08:20:59;;;;;;;4.22;0.70;;;;;;;30.35;42.06;102016.31;5014214;28;20045;-31
2022/07/04 08:23:31;;;;;;;2.22;0.60;;;;;;;30.24;41.76;102015.44;5013622;28;20057;-40
2022/07/04 08:25:59;;;;;;;3.15;0.70;;;;;;;30.32;41.39;102016.28;5013239;28;20061;-36
2022/07/04 08:28:29;;;;;;;2.20;0.60;;;;;;;30.62;40.49;102024.59;5013876;28;20412;-35
2022/07/04 08:30:59;;;;;;;2.35;0.70;;;;;;;30.95;40.27;102024.25;5013891;28;20462;-35
2022/07/04 08:33:27;;;;;;;2.22;0.68;;;;;;;31.20;40.04;102026.28;5013169;28;20073;-33
2022/07/04 08:36:02;;;;;;;2.97;1.20;;;;;;;31.36;39.26;102029.59;5012570;28;20054;-31
2022/07/04 08:38:33;;;;;;;2.20;0.60;;;;;;;31.45;38.83;102027.09;5013083;28;20128;-32
2022/07/04 08:41:04;;;;;;;1.85;0.52;;;;;;;31.67;38.48;102030.78;5012619;28;20063;-41
2022/07/04 08:43:35;;;;;;;;;;;;;;;31.68;36.11;102029.53;5014116;28;20072;-31
2022/07/04 08:46:05;;;;;;;3.42;0.80;;;;;;;31.88;39.33;102030.72;5012793;28;19921;-31
2022/07/04 08:48:52;;;;;;;2.78;0.70;;;;;;;32.04;38.07;102038.91;5013772;28;20061;-32
2022/07/04 08:51:30;;;;;;;2.70;0.70;;;;;;;31.89;34.70;102040.19;5013312;28;20505;-33
2022/07/04 08:53:58;;;;;;;2.15;0.60;;;;;;;31.41;37.40;102035.75;5012865;28;20096;-31
2022/07/04 08:59:16;;;;;;;2.78;0.80;;;;;;;31.49;37.07;102039.47;5013383;28;20074;-39
2022/07/04 09:01:44;;;;;;;3.13;0.60;;;;;;;31.52;36.97;102042.34;5011745;28;20046;-31
2022/07/04 09:04:14;;;;;;;3.40;0.80;;;;;;;31.66;36.78;102047.28;5013413;28;20056;-35
2022/07/04 09:06:43;;;;;;;1.98;0.55;;;;;;;31.50;36.83;102039.03;5012322;28;20499;-32
2022/07/04 09:09:11;;;;;;;2.70;0.70;;;;;;;31.28;36.15;102034.53;5013135;28;20072;-32
2022/07/04 09:11:39;;;;;;;3.25;0.80;;;;;;;31.28;36.03;102042.38;5012762;28;20426;-32
2022/07/04 09:14:07;;;;;;;3.17;0.90;;;;;;;31.26;36.24;102037.00;5012456;28;20411;-31
2022/07/04 09:16:36;;;;;;;2.40;0.70;;;;;;;31.07;35.95;102041.13;5012631;28;20654;-37
2022/07/04 09:19:09;;;;;;;3.33;0.60;;;;;;;30.82;36.98;102046.03;5013098;28;20196;-36
2022/07/04 09:21:45;;;;;;;1.98;0.80;;;;;;;30.87;36.56;102051.41;5011935;28;20499;-33
2022/07/04 09:24:12;;;;;;;3.40;0.90;;;;;;;30.99;37.38;102050.16;5012822;28;20129;-37
2022/07/04 09:26:42;;;;;;;3.53;0.80;;;;;;;30.75;37.94;102046.88;5011704;28;20046;-33
2022/07/04 09:29:10;;;;;;;3.58;0.80;;;;;;;30.73;37.68;102043.56;5012657;28;20084;-33
2022/07/04 09:31:39;;;;;;;3.55;0.80;;;;;;;30.72;37.21;102053.44;5012294;28;20438;-41
2022/07/04 09:34:08;;;;;;;3.15;0.77;;;;;;;30.28;36.71;102044.25;5012877;28;20049;-35
2022/07/04 09:36:41;;;;;;;2.63;0.65;;;;;;;30.13;37.89;102054.91;5011420;28;20045;-33
2022/07/04 09:39:14;;;;;;;4.22;0.70;;;;;;;30.13;37.16;102052.03;5012813;28;20137;-38
2022/07/04 09:41:56;;;;;;;2.38;0.90;;;;;;;29.98;36.00;102058.91;5011629;28;20152;-41
2022/07/04 09:44:25;;;;;;;2.75;0.50;;;;;;;29.75;37.75;102044.81;5012727;28;20073;-33
2022/07/04 09:46:54;;;;;;;1.88;0.55;;;;;;;29.93;37.29;102054.38;5012006;28;20101;-32
2022/07/04 09:49:22;;;;;;;3.45;0.90;;;;;;;29.94;37.68;102060.94;5012026;28;20129;-35
2022/07/04 09:51:52;;;;;;;1.70;0.57;;;;;;;29.89;36.89;102056.41;5012254;28;20049;-42
2022/07/04 09:54:25;;;;;;;3.20;0.60;;;;;;;29.97;36.44;102065.91;5012755;28;20050;-31
2022/07/04 09:56:55;;;;;;;2.40;0.63;;;;;;;29.93;35.69;102065.88;5011411;28;20069;-33
2022/07/04 09:59:24;;;;;;;3.22;0.73;;;;;;;29.78;36.60;102067.00;5012313;28;20073;-32
2022/07/04 10:01:52;;;;;;;3.13;0.70;;;;;;;29.88;35.98;102068.31;5012123;28;20128;-32
2022/07/04 10:04:24;;;;;;;2.20;0.70;;;;;;;29.62;36.82;102063.63;5015770;28;20138;-33
2022/07/04 10:06:52;;;;;;;2.28;0.80;;;;;;;29.63;37.04;102068.97;5012019;28;20046;-32
2022/07/04 10:09:20;;;;;;;3.28;0.73;;;;;;;29.89;37.15;102067.91;5012245;28;20042;-32
2022/07/04 10:11:47;;;;;;;3.78;0.90;;;;;;;29.86;36.43;102068.72;5011212;28;20037;-32
2022/07/04 10:14:17;;;;;;;3.55;0.90;;;;;;;29.56;37.07;102060.31;5012033;28;20048;-31
2022/07/04 10:16:45;;;;;;;2.67;0.68;;;;;;;29.76;37.27;102063.72;5012112;28;20133;-38
2022/07/04 10:19:13;;;;;;;2.13;0.60;;;;;;;29.59;36.73;102068.13;5009968;28;20053;-38
2022/07/04 10:21:42;;;;;;;2.17;0.60;;;;;;;29.38;37.50;102065.06;5012061;28;20041;-32
2022/07/04 10:24:10;;;;;;;2.15;0.70;;;;;;;29.23;37.05;102063.31;5011079;28;20169;-32
2022/07/04 10:26:39;;;;;;;4.20;0.70;;;;;;;29.00;36.61;102058.59;4993005;28;20418;-40
2022/07/04 10:29:07;;;;;;;3.05;0.60;;;;;;;28.86;36.63;102066.28;5011831;28;20072;-32
2022/07/04 10:31:35;;;;;;;2.22;0.50;;;;;;;28.80;37.24;102057.19;5010942;28;20521;-37
2022/07/04 10:34:04;;;;;;;2.00;0.45;;;;;;;28.90;37.38;102065.09;5011363;28;20430;-38
2022/07/04 10:36:32;;;;;;;2.10;0.60;;;;;;;29.18;36.95;102060.81;5011604;28;20049;-32
2022/07/04 10:39:03;;;;;;;2.15;0.60;;;;;;;29.13;36.13;102053.38;5010612;28;20095;-35
2022/07/04 10:41:32;;;;;;;1.98;0.52;;;;;;;28.73;37.54;102055.06;5011988;28;20042;-33
2022/07/04 10:44:03;;;;;;;2.35;0.52;;;;;;;28.77;37.44;102052.22;5011228;28;20506;-43
2022/07/04 10:46:38;;;;;;;2.60;0.55;;;;;;;28.81;37.67;102058.84;5010990;28;20064;-31
2022/07/04 10:49:17;;;;;;;1.95;0.50;;;;;;;28.89;37.66;102054.81;5011437;28;20052;-33
2022/07/04 10:51:46;;;;;;;2.53;0.50;;;;;;;29.02;36.75;102047.53;5011433;28;20506;-31
2022/07/04 10:54:17;;;;;;;3.42;0.50;;;;;;;29.13;36.29;102048.47;5010835;28;20046;-41
2022/07/04 10:56:55;;;;;;;1.73;0.50;;;;;;;29.10;35.66;102054.19;5012175;28;20137;-36
2022/07/04 10:59:26;;;;;;;1.70;0.50;;;;;;;29.03;36.58;102049.19;5011000;28;20045;-31
2022/07/04 11:02:17;;;;;;;1.85;0.50;;;;;;;29.30;35.54;102055.56;5011705;28;20052;-32
2022/07/04 11:04:57;;;;;;;2.22;0.50;;;;;;;28.99;36.74;102061.88;5011306;28;20048;-37
2022/07/04 11:08:07;;;;;;;2.35;0.50;;;;;;;28.58;37.04;102052.44;5010992;28;20084;-42
2022/07/04 11:10:39;;;;;;;2.00;0.60;;;;;;;28.34;38.81;102051.75;4972943;28;20053;-36
2022/07/04 11:13:20;;;;;;;2.25;0.50;;;;;;;28.25;36.93;102042.63;5010778;28;20065;-32
2022/07/04 11:16:02;;;;;;;1.58;0.50;;;;;;;28.42;37.79;102044.03;5010724;28;20060;-31
2022/07/04 11:18:31;;;;;;;2.25;0.50;;;;;;;28.62;37.59;102050.41;4993641;28;20058;-37
2022/07/04 11:20:59;;;;;;;2.33;0.50;;;;;;;28.69;36.94;102044.75;5010387;28;20566;-39
2022/07/04 11:23:26;;;;;;;2.80;0.60;;;;;;;28.75;37.29;102049.75;5010421;28;20153;-30
2022/07/04 11:25:57;;;;;;;1.52;0.40;;;;;;;28.54;36.76;102043.78;5011154;28;20054;-30
2022/07/04 11:28:28;;;;;;;2.10;0.40;;;;;;;28.26;37.23;102043.44;5010889;28;20092;-30
2022/07/04 11:31:13;;;;;;;1.98;0.50;;;;;;;28.09;38.14;102050.59;5007054;28;20034;-36
2022/07/04 11:33:43;;;;;;;1.70;0.70;;;;;;;27.97;38.50;102047.97;5011370;28;20054;-31
2022/07/04 11:36:14;;;;;;;2.90;0.60;;;;;;;28.02;38.09;102056.22;5010273;28;20495;-33
2022/07/04 11:38:49;;;;;;;1.52;0.45;;;;;;;28.17;38.77;102045.78;5011563;28;20410;-33